Time;durP1;ratioP1;P1;durP2;ratioP2;P2;SDS_P1;SDS_P2;PMS_P1;PMS_P2;Temp;Humidity;BMP_temperature;BMP_pressure;BME280_temperature;BME280_humidity;BME280_pressure;Samples;Min_cycle;Max_cycle;Signal;HPM_P1;HPM_P2
2021/11/08 00:02:11;;;;;;;7.13;6.43;;;7.00;99.90;;;;;;5038862;28;20228;-81
2021/11/08 00:04:37;;;;;;;7.28;6.05;;;7.00;99.90;;;;;;5039321;28;20202;-81
2021/11/08 00:07:05;;;;;;;7.28;6.68;;;6.90;99.90;;;;;;5039303;28;20205;-80
2021/11/08 00:09:32;;;;;;;8.10;6.50;;;7.00;99.90;;;;;;5038774;28;20230;-81
2021/11/08 00:12:00;;;;;;;10.50;8.95;;;6.90;99.90;;;;;;5039332;28;20214;-80
2021/11/08 00:14:27;;;;;;;12.75;7.43;;;6.90;99.90;;;;;;5038945;28;20202;-81
2021/11/08 00:17:03;;;;;;;6.72;6.00;;;6.90;99.90;;;;;;5039210;28;20228;-81
2021/11/08 00:19:48;;;;;;;8.65;6.72;;;6.90;99.90;;;;;;5035970;28;20222;-81
2021/11/08 00:22:15;;;;;;;12.70;8.05;;;6.90;99.90;;;;;;5038886;28;20579;-81
2021/11/08 00:24:47;;;;;;;9.00;6.72;;;7.00;99.90;;;;;;5039187;28;20573;-81
2021/11/08 00:27:13;;;;;;;9.23;5.93;;;6.90;99.90;;;;;;5038702;28;20206;-80
2021/11/08 00:29:40;;;;;;;8.43;6.20;;;6.90;99.90;;;;;;5038872;28;20215;-81
2021/11/08 00:32:09;;;;;;;14.18;7.63;;;6.80;99.90;;;;;;5038001;28;20210;-81
2021/11/08 00:34:37;;;;;;;8.80;7.18;;;6.80;99.90;;;;;;5039021;28;20206;-80
2021/11/08 00:37:04;;;;;;;7.03;5.65;;;6.80;99.90;;;;;;5038736;28;20553;-81
2021/11/08 00:39:32;;;;;;;8.63;6.35;;;6.80;99.90;;;;;;5038191;28;20234;-80
2021/11/08 00:41:59;;;;;;;9.50;6.82;;;6.80;99.90;;;;;;5038843;28;20217;-81
2021/11/08 00:44:26;;;;;;;8.35;6.57;;;6.70;99.90;;;;;;5038426;28;20562;-80
2021/11/08 00:46:52;;;;;;;7.22;6.45;;;6.80;99.90;;;;;;5038756;28;20213;-81
2021/11/08 00:49:19;;;;;;;6.70;6.05;;;6.80;99.90;;;;;;5038792;28;20209;-81
2021/11/08 00:51:48;;;;;;;7.20;6.38;;;6.70;99.90;;;;;;5038459;28;20210;-81
2021/11/08 00:54:16;;;;;;;9.38;6.53;;;6.70;99.90;;;;;;5038006;28;20265;-81
2021/11/08 00:56:46;;;;;;;11.35;6.70;;;6.70;99.90;;;;;;5038269;28;20206;-81
2021/11/08 00:59:14;;;;;;;10.98;7.75;;;6.70;99.90;;;;;;5037853;28;20699;-81
2021/11/08 01:01:42;;;;;;;9.27;6.78;;;6.70;99.90;;;;;;5038043;28;20214;-81
2021/11/08 01:04:10;;;;;;;9.10;6.38;;;6.60;99.90;;;;;;5037614;28;20209;-81
2021/11/08 01:06:36;;;;;;;9.95;8.55;;;6.60;99.90;;;;;;5038599;28;20607;-81
2021/11/08 01:09:05;;;;;;;9.48;7.53;;;6.60;99.90;;;;;;5037871;28;20256;-81
2021/11/08 01:11:32;;;;;;;7.55;6.85;;;6.50;99.90;;;;;;5037972;28;20217;-81
2021/11/08 01:13:58;;;;;;;9.18;6.85;;;6.50;99.90;;;;;;5037920;28;20214;-81
2021/11/08 01:16:26;;;;;;;6.57;5.95;;;6.50;99.90;;;;;;5038583;28;20207;-81
2021/11/08 01:18:54;;;;;;;7.28;6.03;;;6.50;99.90;;;;;;5038478;28;20305;-81
2021/11/08 01:21:21;;;;;;;7.75;5.70;;;6.60;99.90;;;;;;5038196;28;20687;-81
2021/11/08 01:23:49;;;;;;;6.95;6.13;;;6.50;99.90;;;;;;5038289;28;20297;-80
2021/11/08 01:26:17;;;;;;;7.80;6.25;;;6.40;99.90;;;;;;5038164;28;20206;-81
2021/11/08 01:28:46;;;;;;;8.45;7.20;;;6.40;99.90;;;;;;5037685;28;20645;-81
2021/11/08 01:31:14;;;;;;;12.60;7.07;;;6.30;99.90;;;;;;5037807;28;20226;-81
2021/11/08 01:33:44;;;;;;;10.45;6.95;;;6.20;99.90;;;;;;5037253;28;20203;-81
2021/11/08 01:36:14;;;;;;;8.48;7.60;;;6.20;99.90;;;;;;5037728;28;20237;-81
2021/11/08 01:38:44;;;;;;;7.60;6.82;;;6.30;99.90;;;;;;5038070;28;20214;-80
2021/11/08 01:41:13;;;;;;;9.45;6.95;;;6.40;99.90;;;;;;5038348;28;20238;-81
2021/11/08 01:43:42;;;;;;;7.78;7.00;;;6.50;99.90;;;;;;5037749;28;20210;-81
2021/11/08 01:46:10;;;;;;;9.20;7.88;;;6.40;99.90;;;;;;5042292;28;20210;-80
2021/11/08 01:48:37;;;;;;;7.85;6.75;;;6.50;99.90;;;;;;5042157;28;20309;-80
2021/11/08 01:51:05;;;;;;;9.13;8.20;;;6.50;99.90;;;;;;5041419;28;20233;-81
2021/11/08 01:53:32;;;;;;;8.88;8.00;;;6.60;99.90;;;;;;5040998;28;20206;-81
2021/11/08 01:55:59;;;;;;;8.23;6.75;;;6.60;99.90;;;;;;5041605;28;20203;-81
2021/11/08 01:58:28;;;;;;;9.30;6.18;;;6.60;99.90;;;;;;5040714;28;20206;-81
2021/11/08 02:00:57;;;;;;;7.75;7.05;;;6.50;99.90;;;;;;5041217;28;20230;-81
2021/11/08 02:03:24;;;;;;;11.93;5.85;;;6.50;99.90;;;;;;5041403;28;20202;-81
2021/11/08 02:05:50;;;;;;;9.40;7.25;;;6.50;99.90;;;;;;5041403;28;20579;-81
2021/11/08 02:08:20;;;;;;;8.43;7.20;;;6.40;99.90;;;;;;5041285;28;20241;-80
2021/11/08 02:10:48;;;;;;;9.68;6.82;;;6.40;99.90;;;;;;5040671;28;20711;-81
2021/11/08 02:13:15;;;;;;;10.32;6.70;;;6.30;99.90;;;;;;5040882;28;20266;-81
2021/11/08 02:15:42;;;;;;;9.93;5.60;;;6.30;99.90;;;;;;5041469;28;20210;-80
2021/11/08 02:18:12;;;;;;;9.52;5.82;;;6.20;99.90;;;;;;5041191;28;20202;-81
2021/11/08 02:20:43;;;;;;;8.35;6.43;;;6.10;99.90;;;;;;5041021;28;20606;-81
2021/11/08 02:23:11;;;;;;;6.05;5.45;;;6.10;99.90;;;;;;5040966;28;20202;-81
2021/11/08 02:25:39;;;;;;;8.90;6.80;;;6.10;99.90;;;;;;5041449;28;20233;-81
2021/11/08 02:28:10;;;;;;;7.43;5.50;;;6.00;99.90;;;;;;5041525;28;20297;-80
2021/11/08 02:30:38;;;;;;;8.32;6.28;;;6.00;99.90;;;;;;5041366;28;20234;-81
2021/11/08 02:33:08;;;;;;;9.48;7.10;;;6.00;99.90;;;;;;5040185;28;20241;-81
2021/11/08 02:35:35;;;;;;;8.50;7.70;;;5.90;99.90;;;;;;5020358;28;20218;-81
2021/11/08 02:38:04;;;;;;;7.47;6.70;;;5.90;99.90;;;;;;5029667;28;20266;-81
2021/11/08 02:40:31;;;;;;;9.27;7.05;;;5.90;99.90;;;;;;5041349;28;20326;-80
2021/11/08 02:43:01;;;;;;;9.57;5.82;;;5.80;99.90;;;;;;5040666;28;20201;-81
2021/11/08 02:45:29;;;;;;;7.68;6.57;;;5.80;99.90;;;;;;5040735;28;20210;-81
2021/11/08 02:47:57;;;;;;;6.70;6.00;;;5.70;99.90;;;;;;5041232;28;20214;-81
2021/11/08 02:50:27;;;;;;;8.95;7.95;;;5.70;99.90;;;;;;5040480;28;20222;-81
2021/11/08 02:52:55;;;;;;;8.30;6.43;;;5.70;99.90;;;;;;5040056;28;20203;-81
2021/11/08 02:55:25;;;;;;;6.97;5.88;;;5.60;99.90;;;;;;5044368;28;20270;-81
2021/11/08 02:57:54;;;;;;;6.20;5.15;;;5.60;99.90;;;;;;5045388;28;20575;-81
2021/11/08 03:00:23;;;;;;;5.78;5.28;;;5.60;99.90;;;;;;5039651;28;20238;-81
2021/11/08 03:02:50;;;;;;;7.15;6.45;;;5.50;99.90;;;;;;5039688;28;20242;-81
2021/11/08 03:05:21;;;;;;;7.72;5.28;;;5.50;99.90;;;;;;5040151;28;20203;-81
2021/11/08 03:07:48;;;;;;;7.15;6.45;;;5.40;99.90;;;;;;5039521;28;20671;-81
2021/11/08 03:10:19;;;;;;;10.63;7.55;;;5.40;99.90;;;;;;5039983;28;20248;-80
2021/11/08 03:12:50;;;;;;;10.43;6.88;;;5.30;99.90;;;;;;5039746;28;20229;-81
2021/11/08 03:15:28;;;;;;;9.48;7.90;;;5.20;99.90;;;;;;5040452;28;20205;-81
2021/11/08 03:18:03;;;;;;;6.75;6.15;;;5.20;99.90;;;;;;5044968;28;20213;-80
2021/11/08 03:20:30;;;;;;;6.95;6.15;;;5.20;99.90;;;;;;5058063;28;20217;-79
2021/11/08 03:23:02;;;;;;;11.32;7.55;;;5.20;99.90;;;;;;5055800;28;20209;-81
2021/11/08 03:25:36;;;;;;;8.43;6.78;;;5.10;99.90;;;;;;5041031;28;20206;-81
2021/11/08 03:28:08;;;;;;;15.57;7.00;;;5.10;99.90;;;;;;5039828;28;20202;-81
2021/11/08 03:30:38;;;;;;;9.30;7.32;;;5.10;99.90;;;;;;5054162;28;20230;-79
2021/11/08 03:33:07;;;;;;;7.95;7.15;;;5.00;99.90;;;;;;5057139;28;20196;-80
2021/11/08 03:35:34;;;;;;;10.60;6.97;;;4.80;99.90;;;;;;5047815;28;20293;-81
2021/11/08 03:38:03;;;;;;;7.20;6.50;;;4.90;99.90;;;;;;5040545;28;20289;-81
2021/11/08 03:40:31;;;;;;;7.40;6.70;;;4.80;99.90;;;;;;5043380;28;20307;-80
2021/11/08 03:43:00;;;;;;;6.30;5.70;;;4.80;99.90;;;;;;5056593;28;20202;-80
2021/11/08 03:45:30;;;;;;;7.50;6.53;;;4.80;99.90;;;;;;5057062;28;20209;-80
2021/11/08 03:47:58;;;;;;;6.85;6.18;;;4.80;99.90;;;;;;5041055;28;20205;-81
2021/11/08 03:50:26;;;;;;;8.50;6.60;;;4.80;99.90;;;;;;5040282;28;20246;-81
2021/11/08 03:52:53;;;;;;;13.43;8.40;;;4.80;99.90;;;;;;5039513;28;20201;-80
2021/11/08 03:55:21;;;;;;;9.75;6.90;;;4.80;99.90;;;;;;5039354;28;20202;-80
2021/11/08 03:57:50;;;;;;;9.57;6.90;;;4.70;99.90;;;;;;5039118;28;20252;-81
2021/11/08 04:00:18;;;;;;;11.05;7.35;;;4.70;99.90;;;;;;5039087;28;20230;-81
2021/11/08 04:02:48;;;;;;;8.98;7.00;;;4.70;99.90;;;;;;5033528;28;20199;-81
2021/11/08 04:05:15;;;;;;;7.82;7.00;;;4.70;99.90;;;;;;5039377;28;20245;-81
2021/11/08 04:07:43;;;;;;;6.55;5.93;;;4.70;99.90;;;;;;5037939;28;20198;-81
2021/11/08 04:10:13;;;;;;;11.63;6.40;;;4.70;99.90;;;;;;5040029;28;20707;-81
2021/11/08 04:12:39;;;;;;;10.35;6.63;;;4.70;99.90;;;;;;5039402;28;20195;-80
2021/11/08 04:15:09;;;;;;;8.15;7.35;;;4.70;99.90;;;;;;5039500;28;20480;-81
2021/11/08 04:17:41;;;;;;;6.95;6.25;;;4.60;99.90;;;;;;5040424;28;20206;-81
2021/11/08 04:20:11;;;;;;;7.20;6.53;;;4.60;99.90;;;;;;5039818;28;20225;-81
2021/11/08 04:22:38;;;;;;;8.82;6.32;;;4.60;99.90;;;;;;5039571;28;20206;-81
2021/11/08 04:25:06;;;;;;;8.20;6.25;;;4.60;99.90;;;;;;5040137;28;20232;-80
2021/11/08 04:27:37;;;;;;;10.57;6.47;;;4.60;99.90;;;;;;5039816;28;20233;-81
2021/11/08 04:30:05;;;;;;;8.07;6.47;;;4.60;99.90;;;;;;5039644;28;20214;-81
2021/11/08 04:32:36;;;;;;;8.52;7.35;;;4.50;99.90;;;;;;5021108;28;20211;-81
2021/11/08 04:35:07;;;;;;;9.98;7.28;;;4.50;99.90;;;;;;5040252;28;20667;-81
2021/11/08 04:37:54;;;;;;;9.32;7.45;;;4.50;99.90;;;;;;5040249;28;20210;-81
2021/11/08 04:40:26;;;;;;;10.57;8.00;;;4.40;99.90;;;;;;5019348;28;20227;-81
2021/11/08 04:42:59;;;;;;;7.95;7.20;;;4.40;99.90;;;;;;5024071;28;20225;-81
2021/11/08 04:45:42;;;;;;;8.75;7.72;;;4.40;99.90;;;;;;5039635;28;20208;-81
2021/11/08 04:48:25;;;;;;;8.27;7.20;;;4.40;99.90;;;;;;5040074;28;20201;-81
2021/11/08 04:50:56;;;;;;;6.63;6.05;;;4.30;99.90;;;;;;5039321;28;20222;-81
2021/11/08 04:53:31;;;;;;;8.10;6.85;;;4.20;99.90;;;;;;5039264;28;20204;-81
2021/11/08 05:31:52;;;;;;;8.48;7.68;;;4.40;99.90;;;;;;5043236;28;20204;-81
2021/11/08 05:34:19;;;;;;;8.82;6.45;;;4.40;99.90;;;;;;5042736;28;20210;-81
2021/11/08 05:36:46;;;;;;;8.13;7.15;;;4.50;99.90;;;;;;5043003;28;20214;-82
2021/11/08 05:39:15;;;;;;;9.63;7.80;;;4.50;99.90;;;;;;5042541;28;20210;-81
2021/11/08 05:41:45;;;;;;;10.27;7.15;;;4.50;99.90;;;;;;5042580;28;20226;-81
2021/11/08 05:44:11;;;;;;;6.85;6.20;;;4.50;99.90;;;;;;5042271;28;20206;-81
2021/11/08 05:46:38;;;;;;;9.55;6.05;;;4.50;99.90;;;;;;5042706;28;20206;-81
2021/11/08 05:49:05;;;;;;;8.63;7.15;;;4.50;99.90;;;;;;5042591;28;20202;-81
2021/11/08 05:51:32;;;;;;;14.65;7.15;;;4.50;99.90;;;;;;5042396;28;20213;-81
2021/11/08 05:53:59;;;;;;;7.63;6.82;;;4.60;99.90;;;;;;5041527;28;20202;-81
2021/11/08 05:56:29;;;;;;;7.07;6.43;;;4.60;99.90;;;;;;5041988;28;20206;-81
2021/11/08 05:59:13;;;;;;;9.75;8.95;;;4.60;99.90;;;;;;5041758;28;20203;-81
2021/11/08 06:51:50;;;;;;;9.35;7.32;;;4.50;99.90;;;;;;4993793;28;20206;-80
2021/11/08 06:54:17;;;;;;;8.50;6.38;;;4.50;99.90;;;;;;4994033;28;20294;-80
2021/11/08 06:56:49;;;;;;;9.63;8.25;;;4.50;99.90;;;;;;5012185;28;20211;-80
2021/11/08 06:59:17;;;;;;;8.40;6.95;;;4.50;99.90;;;;;;5035823;28;20233;-80
2021/11/08 07:01:47;;;;;;;10.98;7.82;;;4.60;99.90;;;;;;5032683;28;20218;-80
2021/11/08 07:04:16;;;;;;;11.35;7.60;;;4.60;99.90;;;;;;5024077;28;20243;-80
2021/11/08 07:06:43;;;;;;;9.77;7.68;;;4.60;99.90;;;;;;5023949;28;20199;-80
2021/11/08 07:09:10;;;;;;;8.50;7.60;;;4.70;99.90;;;;;;5026563;28;20206;-80
2021/11/08 07:11:38;;;;;;;9.77;7.78;;;4.70;99.90;;;;;;5024430;28;20202;-80
2021/11/08 07:14:05;;;;;;;14.70;8.48;;;4.70;99.90;;;;;;5025769;28;20209;-79
2021/11/08 07:16:32;;;;;;;12.35;10.15;;;4.60;99.90;;;;;;5025887;28;20198;-79
2021/11/08 07:18:59;;;;;;;10.30;8.52;;;4.60;99.90;;;;;;5024670;28;20656;-80
2021/11/08 07:21:27;;;;;;;10.82;8.10;;;4.70;99.90;;;;;;5027414;28;20226;-80
2021/11/08 07:23:54;;;;;;;11.40;9.13;;;4.60;99.90;;;;;;5023280;28;20211;-80
2021/11/08 07:26:21;;;;;;;10.13;8.68;;;4.70;99.90;;;;;;5025813;28;20213;-80
2021/11/08 07:28:48;;;;;;;13.18;9.82;;;4.80;99.90;;;;;;5024705;28;20213;-80
2021/11/08 07:31:15;;;;;;;15.35;10.23;;;4.90;99.90;;;;;;5025214;28;20646;-80
2021/11/08 07:33:41;;;;;;;13.20;9.90;;;5.00;99.90;;;;;;5026714;28;20202;-80
2021/11/08 07:36:08;;;;;;;16.98;9.98;;;5.00;99.90;;;;;;5023353;28;20542;-81
2021/11/08 07:38:37;;;;;;;11.20;9.30;;;5.10;99.90;;;;;;5028838;28;20683;-80
2021/11/08 07:41:07;;;;;;;11.82;9.50;;;5.20;99.90;;;;;;5034817;28;20703;-80
2021/11/08 07:43:34;;;;;;;16.35;9.88;;;5.20;99.90;;;;;;5033669;28;20202;-80
2021/11/08 07:46:01;;;;;;;10.82;8.35;;;5.20;99.90;;;;;;5035449;28;20208;-81
2021/11/08 07:48:28;;;;;;;12.98;9.70;;;5.40;99.90;;;;;;5041745;28;20210;-81
2021/11/08 07:54:37;;;;;;;15.32;10.60;;;5.50;99.90;;;;;;5019047;28;20212;-83
2021/11/08 07:57:08;;;;;;;14.23;9.85;;;5.50;99.90;;;;;;5046578;28;20198;-83
2021/11/08 07:59:36;;;;;;;18.80;10.07;;;5.60;99.90;;;;;;5037919;28;20238;-82
2021/11/08 08:05:14;;;;;;;9.32;8.52;;;5.80;99.90;;;;;;5006794;28;20253;-80
2021/11/08 08:07:43;;;;;;;12.43;9.65;;;5.90;99.90;;;;;;5043463;28;20220;-79
2021/11/08 08:10:11;;;;;;;13.05;10.15;;;6.00;99.90;;;;;;5054307;28;20234;-80
2021/11/08 08:12:38;;;;;;;10.77;9.75;;;6.10;99.90;;;;;;5056374;28;20229;-82
2021/11/08 08:15:06;;;;;;;14.45;11.95;;;6.10;99.90;;;;;;5043561;28;20209;-80
2021/11/08 08:17:35;;;;;;;11.70;10.60;;;6.10;99.90;;;;;;5049898;28;20195;-79
2021/11/08 08:20:02;;;;;;;12.35;10.82;;;6.10;99.90;;;;;;5051903;28;20222;-80
2021/11/08 08:22:29;;;;;;;13.43;10.60;;;6.10;99.90;;;;;;5052140;28;20208;-81
2021/11/08 08:24:56;;;;;;;13.75;11.18;;;6.00;99.90;;;;;;5035193;28;20221;-81
2021/11/08 08:27:24;;;;;;;10.93;9.70;;;6.00;99.90;;;;;;5033718;28;20698;-81
2021/11/08 08:29:51;;;;;;;12.80;11.35;;;6.20;99.90;;;;;;5046005;28;20222;-82
2021/11/08 08:32:18;;;;;;;16.13;9.77;;;6.30;99.90;;;;;;5055290;28;20217;-82
2021/11/08 08:34:45;;;;;;;15.40;10.45;;;6.50;99.90;;;;;;5054268;28;20206;-81
2021/11/08 08:39:57;;;;;;;14.55;8.63;;;6.40;99.90;;;;;;5037722;28;20229;-82
2021/11/08 08:42:26;;;;;;;15.15;9.73;;;6.30;99.90;;;;;;5041451;28;20226;-82
2021/11/08 08:44:54;;;;;;;11.15;9.18;;;6.40;99.90;;;;;;5041875;28;20213;-82
2021/11/08 08:47:21;;;;;;;14.65;8.38;;;6.40;99.90;;;;;;5047066;28;20548;-83
2021/11/08 08:49:49;;;;;;;14.68;9.13;;;6.70;99.90;;;;;;5044294;28;20221;-82
2021/11/08 08:52:16;;;;;;;13.68;10.25;;;6.90;99.90;;;;;;5044988;28;20206;-82
2021/11/08 08:54:43;;;;;;;14.27;9.48;;;6.90;99.90;;;;;;5046176;28;20210;-83
2021/11/08 08:57:11;;;;;;;16.52;8.68;;;6.80;99.90;;;;;;5047852;28;20202;-83
2021/11/08 08:59:40;;;;;;;12.63;9.35;;;7.00;99.90;;;;;;5048146;28;20261;-84
2021/11/08 09:02:08;;;;;;;14.85;9.48;;;7.20;99.90;;;;;;5022105;28;20282;-84
2021/11/08 09:04:36;;;;;;;13.23;7.65;;;7.20;99.90;;;;;;5030972;28;20203;-83
2021/11/08 09:07:03;;;;;;;16.45;8.20;;;7.30;99.90;;;;;;5041571;28;20569;-83
2021/11/08 09:09:31;;;;;;;12.32;7.15;;;7.50;99.90;;;;;;5041410;28;20226;-81
2021/11/08 09:11:57;;;;;;;10.43;6.63;;;7.60;99.90;;;;;;5038377;28;20209;-83
2021/11/08 09:14:27;;;;;;;8.60;6.35;;;7.60;99.90;;;;;;5043921;28;20214;-81
2021/11/08 09:16:55;;;;;;;12.02;6.50;;;7.70;99.90;;;;;;5044391;28;20209;-83
2021/11/08 09:19:22;;;;;;;9.13;6.57;;;7.70;99.90;;;;;;5044156;28;20206;-83
2021/11/08 09:21:49;;;;;;;10.15;7.20;;;7.80;99.90;;;;;;5041216;28;20221;-83
2021/11/08 09:24:16;;;;;;;8.77;6.82;;;7.90;99.90;;;;;;5043150;28;20214;-83
2021/11/08 09:26:43;;;;;;;11.52;8.77;;;7.80;99.90;;;;;;5041896;28;20198;-82
2021/11/08 09:29:10;;;;;;;10.60;8.68;;;7.90;99.90;;;;;;5042830;28;20210;-81
2021/11/08 09:31:37;;;;;;;11.80;7.97;;;8.10;99.90;;;;;;5039561;28;20199;-82
2021/11/08 09:34:09;;;;;;;12.32;7.38;;;8.10;99.90;;;;;;5036773;28;20217;-84
2021/11/08 09:36:39;;;;;;;14.07;6.75;;;8.30;99.90;;;;;;5034994;28;20213;-82
2021/11/08 09:39:20;;;;;;;9.05;5.93;;;8.50;99.90;;;;;;5033361;28;20234;-84
2021/11/08 09:41:47;;;;;;;11.60;5.47;;;8.60;99.90;;;;;;5025200;28;20226;-80
2021/11/08 09:44:14;;;;;;;7.65;5.35;;;8.80;99.90;;;;;;5031784;28;20209;-80
2021/11/08 09:46:42;;;;;;;8.85;6.53;;;8.70;99.90;;;;;;5031819;28;20202;-80
2021/11/08 09:49:11;;;;;;;8.30;6.28;;;8.80;99.90;;;;;;5032245;28;20207;-80
2021/11/08 09:51:41;;;;;;;18.95;8.18;;;8.60;99.90;;;;;;5031828;28;20203;-80
2021/11/08 09:54:10;;;;;;;13.85;7.50;;;8.60;99.90;;;;;;5033256;28;20210;-80
2021/11/08 09:56:37;;;;;;;7.25;5.90;;;8.40;99.90;;;;;;5033210;28;20683;-80
2021/11/08 09:59:04;;;;;;;10.20;6.75;;;8.30;99.90;;;;;;5033076;28;20558;-80
2021/11/08 10:01:34;;;;;;;6.57;5.65;;;8.20;99.90;;;;;;5033268;28;20237;-80
2021/11/08 10:04:01;;;;;;;7.97;6.47;;;8.20;99.90;;;;;;5033861;28;20211;-80
2021/11/08 10:06:31;;;;;;;15.75;7.32;;;8.20;99.90;;;;;;5035682;28;20723;-80
2021/11/08 10:08:57;;;;;;;10.48;7.45;;;8.20;99.90;;;;;;5036918;28;20623;-80
2021/11/08 10:11:25;;;;;;;8.40;7.63;;;8.30;99.90;;;;;;5036948;28;20229;-80
2021/11/08 10:13:53;;;;;;;14.07;8.15;;;8.30;99.90;;;;;;5036803;28;20216;-80
2021/11/08 10:16:23;;;;;;;11.52;7.55;;;8.40;99.90;;;;;;5036989;28;20210;-80
2021/11/08 10:18:53;;;;;;;14.95;7.72;;;8.40;99.90;;;;;;5036731;28;20210;-79
2021/11/08 10:21:22;;;;;;;11.35;6.93;;;8.60;99.90;;;;;;5036560;28;20222;-80
2021/11/08 10:23:52;;;;;;;9.55;6.90;;;8.80;99.90;;;;;;5036289;28;20704;-80
2021/11/08 10:26:21;;;;;;;12.40;9.68;;;9.00;99.90;;;;;;5036334;28;20580;-80
2021/11/08 10:28:52;;;;;;;13.20;9.27;;;9.30;99.90;;;;;;5036089;28;20211;-80
2021/11/08 10:31:19;;;;;;;10.77;9.55;;;9.40;99.90;;;;;;5036350;28;20220;-80
2021/11/08 10:33:46;;;;;;;12.25;9.65;;;9.70;99.90;;;;;;5035680;28;20676;-80
2021/11/08 10:36:15;;;;;;;15.03;7.57;;;10.10;99.90;;;;;;5036339;28;20207;-80
2021/11/08 10:38:43;;;;;;;8.87;7.87;;;10.30;99.90;;;;;;5036791;28;20462;-80
2021/11/08 10:41:15;;;;;;;8.07;6.80;;;10.80;99.90;;;;;;5037047;28;20868;-80
2021/11/08 10:43:45;;;;;;;13.70;7.60;;;11.20;99.90;;;;;;5036238;28;20941;-80
2021/11/08 10:46:14;;;;;;;8.47;7.53;;;11.50;99.90;;;;;;5036614;28;20452;-80
2021/11/08 10:48:43;;;;;;;8.10;6.90;;;11.80;99.90;;;;;;5036568;28;20504;-80
2021/11/08 10:51:14;;;;;;;9.93;5.93;;;11.80;99.90;;;;;;5035989;28;20479;-80
2021/11/08 10:53:49;;;;;;;9.57;7.10;;;11.90;99.90;;;;;;5035866;28;21016;-80
2021/11/08 10:56:23;;;;;;;10.70;9.17;;;11.80;99.90;;;;;;5036498;28;20453;-80
2021/11/08 10:58:51;;;;;;;9.13;7.47;;;11.70;99.90;;;;;;5036142;28;20554;-80
2021/11/08 11:01:30;;;;;;;14.17;9.60;;;12.30;99.90;;;;;;5061343;23;20474;-82
2021/11/08 11:04:00;;;;;;;7.10;6.40;;;13.20;99.90;;;;;;5021911;28;20478;-83
2021/11/08 11:06:36;;;;;;;12.80;8.60;;;13.80;99.90;;;;;;5019672;28;20504;-83
2021/11/08 11:09:10;;;;;;;10.80;8.10;;;13.80;99.20;;;;;;5019523;28;20540;-83
2021/11/08 11:11:39;;;;;;;11.80;8.40;;;13.10;98.60;;;;;;5018863;28;20470;-83
2021/11/08 11:14:06;;;;;;;11.00;9.40;;;12.70;99.20;;;;;;5018739;28;20492;-83
2021/11/08 11:16:35;;;;;;;12.60;8.87;;;11.90;99.40;;;;;;5018946;28;20780;-83
2021/11/08 11:19:05;;;;;;;9.20;8.33;;;11.70;99.90;;;;;;5018389;28;20453;-83
2021/11/08 11:21:32;;;;;;;7.83;7.00;;;11.90;99.90;;;;;;5018174;28;20493;-84
2021/11/08 11:24:04;;;;;;;9.57;6.53;;;12.20;99.90;;;;;;5019959;28;20457;-83
2021/11/08 11:26:36;;;;;;;7.50;6.83;;;12.90;99.90;;;;;;5023824;28;20450;-83
2021/11/08 11:29:06;;;;;;;11.20;7.60;;;13.60;98.10;;;;;;5022187;28;20461;-83
2021/11/08 11:31:37;;;;;;;6.47;5.83;;;13.70;96.90;;;;;;5018934;28;20516;-83
2021/11/08 11:34:16;;;;;;;8.23;6.40;;;13.70;96.90;;;;;;5017883;28;20939;-83
2021/11/08 11:36:44;;;;;;;8.30;5.87;;;13.80;96.70;;;;;;5018687;28;20430;-84
2021/11/08 11:39:16;;;;;;;6.73;5.97;;;13.90;96.10;;;;;;5019188;28;20465;-83
2021/11/08 11:41:45;;;;;;;13.33;6.50;;;14.60;96.00;;;;;;5019164;28;20556;-84
2021/11/08 11:44:17;;;;;;;11.53;6.70;;;15.60;95.30;;;;;;5019021;28;20943;-84
2021/11/08 11:46:46;;;;;;;7.93;7.07;;;16.30;92.00;;;;;;5018417;28;20458;-83
2021/11/08 11:49:14;;;;;;;7.17;6.17;;;15.90;90.80;;;;;;5018384;28;20450;-83
2021/11/08 11:51:44;;;;;;;9.33;6.27;;;15.60;91.90;;;;;;5018244;28;20482;-83
2021/11/08 11:54:12;;;;;;;9.13;6.47;;;15.50;92.00;;;;;;5018015;28;20450;-84
2021/11/08 11:56:42;;;;;;;10.37;6.33;;;16.00;91.90;;;;;;5018365;28;20460;-83
2021/11/08 11:59:11;;;;;;;7.07;6.00;;;16.10;89.60;;;;;;5018484;28;20451;-83
2021/11/08 12:01:40;;;;;;;6.57;5.30;;;16.00;90.50;;;;;;5018500;28;20501;-83
2021/11/08 12:04:09;;;;;;;7.00;6.30;;;16.50;90.10;;;;;;5017728;28;20861;-83
2021/11/08 12:06:38;;;;;;;5.33;4.83;;;16.80;90.80;;;;;;5018684;28;20455;-83
2021/11/08 12:09:09;;;;;;;5.57;4.93;;;17.60;90.30;;;;;;5018548;28;20525;-83
2021/11/08 12:11:41;;;;;;;6.10;5.40;;;18.30;87.10;;;;;;5020411;28;20477;-83
2021/11/08 12:14:14;;;;;;;9.67;5.60;;;19.00;85.60;;;;;;5019627;28;20482;-83
2021/11/08 12:16:54;;;;;;;7.53;5.00;;;19.40;82.20;;;;;;5020868;28;20425;-83
2021/11/08 12:19:23;;;;;;;5.57;4.90;;;19.00;78.70;;;;;;5024936;28;20486;-83
2021/11/08 12:21:51;;;;;;;6.20;4.70;;;17.80;77.70;;;;;;5021659;28;20495;-83
2021/11/08 12:24:20;;;;;;;6.77;5.30;;;17.40;81.50;;;;;;5018525;28;20459;-83
2021/11/08 12:26:48;;;;;;;8.30;6.20;;;17.00;82.00;;;;;;5017636;28;20454;-83
2021/11/08 12:29:19;;;;;;;6.13;5.00;;;17.10;82.20;;;;;;5017724;28;20448;-83
2021/11/08 12:31:46;;;;;;;6.37;5.40;;;17.70;82.50;;;;;;5017885;28;20479;-83
2021/11/08 12:34:20;;;;;;;8.00;5.30;;;18.30;81.50;;;;;;5018273;28;20464;-83
2021/11/08 12:36:58;;;;;;;6.40;4.47;;;18.60;80.20;;;;;;5018723;28;20451;-83
2021/11/08 12:39:26;;;;;;;8.07;4.37;;;19.10;78.10;;;;;;5018268;28;20467;-83
2021/11/08 12:42:02;;;;;;;9.13;4.97;;;19.80;78.30;;;;;;5017919;28;20485;-83
2021/11/08 12:44:38;;;;;;;7.63;5.57;;;20.50;75.60;;;;;;5018085;28;20933;-83
2021/11/08 12:47:08;;;;;;;8.17;4.37;;;21.10;73.40;;;;;;5018396;28;20454;-83
2021/11/08 12:49:39;;;;;;;6.10;4.17;;;21.40;70.50;;;;;;5017947;28;20453;-83
2021/11/08 12:52:14;;;;;;;4.10;2.70;;;21.40;68.60;;;;;;5017403;28;20457;-83
2021/11/08 12:54:47;;;;;;;4.30;3.50;;;21.30;65.00;;;;;;5017848;28;20461;-83
2021/11/08 12:57:16;;;;;;;6.40;5.90;;;21.30;66.70;;;;;;5017729;28;20454;-83
2021/11/08 12:59:46;;;;;;;8.23;4.03;;;21.10;67.30;;;;;;5017091;28;20541;-83
2021/11/08 13:02:27;;;;;;;10.23;4.13;;;21.20;66.30;;;;;;5018159;28;20485;-83
2021/11/08 13:04:59;;;;;;;6.53;3.33;;;21.30;65.80;;;;;;5017793;28;20457;-83
2021/11/08 13:07:34;;;;;;;7.20;4.63;;;21.40;64.90;;;;;;5018462;28;20454;-84
2021/11/08 13:10:02;;;;;;;7.40;3.53;;;21.60;64.20;;;;;;5018089;28;20473;-83
2021/11/08 13:12:34;;;;;;;5.27;3.67;;;22.00;64.80;;;;;;5017085;28;20457;-84
2021/11/08 13:15:08;;;;;;;5.83;3.20;;;21.40;61.40;;;;;;5017548;28;20462;-83
2021/11/08 13:17:47;;;;;;;6.07;3.77;;;20.80;61.00;;;;;;5017367;28;20460;-84
2021/11/08 13:20:18;;;;;;;6.87;4.03;;;19.30;62.00;;;;;;5017641;28;20511;-83
2021/11/08 13:25:31;;;;;;;6.87;4.10;;;16.20;68.10;;;;;;4996059;28;20463;-83
2021/11/08 13:28:05;;;;;;;4.43;3.17;;;15.50;72.10;;;;;;4997118;28;20444;-83
2021/11/08 13:30:35;;;;;;;6.83;3.93;;;15.20;74.00;;;;;;4997648;28;21026;-83
2021/11/08 13:33:04;;;;;;;4.17;3.00;;;14.20;78.30;;;;;;4996693;28;20530;-83
2021/11/08 13:35:33;;;;;;;4.47;4.03;;;13.90;82.10;;;;;;4996908;28;20486;-83
2021/11/08 13:38:07;;;;;;;5.90;4.10;;;13.30;81.00;;;;;;4996825;28;20484;-83
2021/11/08 13:40:37;;;;;;;10.93;3.17;;;13.00;82.80;;;;;;4997818;28;20483;-83
2021/11/08 13:46:06;;;;;;;4.30;3.20;;;12.50;85.30;;;;;;5001485;28;20938;-83
2021/11/08 13:48:34;;;;;;;7.57;3.60;;;12.80;87.30;;;;;;5000624;28;20450;-83
2021/11/08 13:51:04;;;;;;;4.73;2.30;;;13.60;87.60;;;;;;5002146;28;20477;-83
2021/11/08 13:53:33;;;;;;;3.00;2.80;;;14.20;83.10;;;;;;5000634;28;20474;-83
2021/11/08 13:56:02;;;;;;;6.20;3.13;;;14.50;81.90;;;;;;5000240;28;20446;-84
2021/11/08 13:58:30;;;;;;;4.27;2.50;;;14.90;81.30;;;;;;5000060;28;20459;-83
2021/11/08 14:07:18;;;;;;;5.73;3.43;;;15.50;76.60;;;;;;5000088;28;20467;-84
2021/11/08 14:09:45;;;;;;;3.90;3.00;;;15.90;77.70;;;;;;5000795;28;20973;-83
2021/11/08 14:12:14;;;;;;;4.63;3.00;;;16.20;76.00;;;;;;4999793;28;20950;-83
2021/11/08 14:14:42;;;;;;;5.87;4.40;;;16.00;74.70;;;;;;5001007;28;20538;-84
2021/11/08 14:17:13;;;;;;;8.63;4.03;;;15.90;74.40;;;;;;5000794;28;20844;-83
2021/11/08 14:19:40;;;;;;;4.13;3.17;;;15.30;73.40;;;;;;5000420;28;20453;-84
2021/11/08 14:22:07;;;;;;;5.77;3.63;;;14.60;73.40;;;;;;4999492;28;20469;-83
2021/11/08 14:24:39;;;;;;;6.50;3.80;;;14.50;78.10;;;;;;4999740;28;20461;-83
2021/11/08 14:27:11;;;;;;;4.83;4.33;;;13.80;81.30;;;;;;4999760;28;20522;-83
2021/11/08 14:29:38;;;;;;;3.77;3.43;;;13.40;83.70;;;;;;4999267;28;20825;-83
2021/11/08 14:32:07;;;;;;;4.53;2.77;;;12.90;82.20;;;;;;5000017;28;20458;-83
2021/11/08 14:34:40;;;;;;;5.30;3.00;;;13.00;82.20;;;;;;4999633;28;20453;-84
2021/11/08 14:37:12;;;;;;;3.83;3.27;;;12.80;81.40;;;;;;4999493;28;20479;-83
2021/11/08 14:48:15;;;;;;;4.10;3.70;;;12.40;84.10;;;;;;4999851;28;20461;-83
2021/11/08 14:50:52;;;;;;;6.33;3.00;;;12.30;85.00;;;;;;4999562;28;20485;-83
2021/11/08 14:53:19;;;;;;;5.63;4.30;;;12.10;84.60;;;;;;4999400;28;20477;-83
2021/11/08 14:55:48;;;;;;;5.67;4.10;;;12.10;85.50;;;;;;4999664;28;20457;-83
2021/11/08 14:58:17;;;;;;;6.80;3.30;;;12.00;86.20;;;;;;5006049;28;20534;-81